Khanewal Weather



Khanewal's Current Weather

Temprature 24o haze

haze

Rain: 0 %

Min Temprature24o
Max Temprature24o
Humidity57
Wind Speed2.32 m/h
Sun Rise05:51:38
Sun Set18:35:33
Current Time: 09-Apr-2020 02:34:22
Lat/Lon: 30.3, 71.93




Khanewal's Geo Location



Khanewal's Weather Forecast

Time Overall Temp Min Temp Max Temp Humidity Wind Speed Rain
09-Apr-2020 (Thu)
05:00:00 few clouds 22.300 20.860 22.300 36 2.74 m/h 0 %
08:00:00 scattered clouds 26.550 25.470 26.550 28 2.18 m/h 0 %
11:00:00 broken clouds 33.180 32.460 33.180 18 3.68 m/h 0 %
14:00:00 broken clouds 36.060 35.700 36.060 13 3.47 m/h 0 %
17:00:00 overcast clouds 35.090 35.090 35.090 13 2.83 m/h 0 %
20:00:00 overcast clouds 28.580 28.580 28.580 24 3.39 m/h 0 %
23:00:00 light rain 26.910 26.910 26.910 27 2.97 m/h 33 %
10-Apr-2020 (Fri)
02:00:00 few clouds 24.580 24.580 24.580 29 1.85 m/h 0 %
05:00:00 few clouds 22.330 22.330 22.330 39 2.92 m/h 0 %
08:00:00 clear sky 24.810 24.810 24.810 37 4.19 m/h 0 %
11:00:00 clear sky 31.850 31.850 31.850 23 4.45 m/h 0 %
14:00:00 clear sky 35.190 35.190 35.190 18 4.8 m/h 0 %
17:00:00 scattered clouds 33.970 33.970 33.970 20 5.48 m/h 0 %
20:00:00 few clouds 27.640 27.640 27.640 29 3.57 m/h 0 %
23:00:00 clear sky 25.690 25.690 25.690 33 3.17 m/h 0 %
11-Apr-2020 (Sat)
02:00:00 broken clouds 24.280 24.280 24.280 38 3 m/h 0 %
05:00:00 overcast clouds 23.760 23.760 23.760 40 3.1 m/h 0 %
08:00:00 broken clouds 28.140 28.140 28.140 31 3.42 m/h 0 %
11:00:00 scattered clouds 34.710 34.710 34.710 18 3.01 m/h 0 %
14:00:00 clear sky 37.780 37.780 37.780 14 3.34 m/h 0 %
17:00:00 scattered clouds 36.470 36.470 36.470 14 3.64 m/h 0 %
20:00:00 overcast clouds 30.260 30.260 30.260 21 2.06 m/h 0 %
23:00:00 broken clouds 28.560 28.560 28.560 21 2.33 m/h 0 %
12-Apr-2020 (Sun)
02:00:00 scattered clouds 26.680 26.680 26.680 23 1.87 m/h 0 %
05:00:00 broken clouds 25.000 25.000 25.000 26 1.64 m/h 0 %
08:00:00 broken clouds 29.710 29.710 29.710 21 1.51 m/h 0 %
11:00:00 broken clouds 36.940 36.940 36.940 15 0.59 m/h 0 %
14:00:00 broken clouds 39.500 39.500 39.500 11 4.62 m/h 0 %
17:00:00 scattered clouds 38.290 38.290 38.290 12 4.97 m/h 0 %
20:00:00 clear sky 31.140 31.140 31.140 20 1.8 m/h 0 %
23:00:00 light rain 29.300 29.300 29.300 24 1.79 m/h 18 %
13-Apr-2020 (Mon)
02:00:00 overcast clouds 27.710 27.710 27.710 28 1.25 m/h 0 %
05:00:00 overcast clouds 26.330 26.330 26.330 30 2.22 m/h 0 %
08:00:00 light rain 30.650 30.650 30.650 25 1.25 m/h 13 %
11:00:00 broken clouds 39.000 39.000 39.000 14 1.19 m/h 0 %
14:00:00 clear sky 42.220 42.220 42.220 9 2.16 m/h 0 %
17:00:00 few clouds 41.050 41.050 41.050 9 3.59 m/h 0 %
20:00:00 few clouds 33.870 33.870 33.870 15 2.44 m/h 0 %
23:00:00 few clouds 31.340 31.340 31.340 18 3.98 m/h 0 %
14-Apr-2020 (Tue)
02:00:00 scattered clouds 29.550 29.550 29.550 16 3.63 m/h 0 %

Famous Cities (61)